Home > Products > Valid Products > MTR

000
SAUS46 KSEW 021159
MTRSMP
METAR KSMP 021156Z AUTO VRB04KT 3/4SM BR SCT001 OVC026 09/08 A2998
RMK AO2 SLP139 T00890078 10100 20089 58007 $





000
SAUS46 KSEW 021132
MTRSMP
SPECI KSMP 021130Z AUTO VRB05KT 1/4SM FG BKN002 OVC026 09/08 A2998
RMK AO2 T00940083 $





000
SAUS46 KSEW 021126
MTRSMP
SPECI KSMP 021118Z AUTO VRB05KT 1/2SM FG BKN002 OVC026 09/08 A2998
RMK AO2 T00940083 $





000
SAUS46 KSEW 021106
MTRSMP
SPECI KSMP 021105Z AUTO VRB04KT 1/4SM FG BKN002 OVC024 09/08 A2998
RMK AO2 T00940083 $





000
SAUS46 KSEW 021058
MTRSMP
METAR KSMP 021056Z AUTO VRB06KT 1/2SM FG BKN002 OVC023 09/08 A2999
RMK AO2 SLP141 T00940083 $





000
SAUS46 KSEW 020958
MTRSMP
METAR KSMP 020956Z AUTO VRB04KT 1/4SM FG BKN002 OVC026 09/08 A3000
RMK AO2 SLP146 T00940083 $





000
SAUS46 KSEW 020956
MTRSMP
SPECI KSMP 020951Z AUTO VRB04KT 1/4SM FG BKN002 OVC024 09/08 A3000
RMK AO2 $





000
SAUS46 KSEW 020945
MTRSMP
SPECI KSMP 020939Z AUTO 27005KT 1SM BR BKN002 OVC026 09/08 A3001 RMK
AO2 T00940083 $





000
SAUS46 KSEW 020935
MTRSMP
SPECI KSMP 020933Z AUTO 28007KT 1/4SM FG VV002 09/08 A3000 RMK AO2
T00940083 $





000
SAUS46 KSEW 020900
MTRSMP
METAR KSMP 020856Z AUTO VRB04KT 1/4SM FG VV001 09/08 A3001 RMK AO2
SLP153 T00890078 57013 $





000
SAUS46 KSEW 020749
MTRSMP
SPECI KSMP 020743Z AUTO VRB04KT 3/4SM BR BKN002 OVC036 09/08 A3002
RMK AO2 T00890078 $





000
SAUS46 KSEW 020729
MTRSMP
SPECI KSMP 020728Z AUTO VRB03KT 1 1/4SM BR SCT002 OVC034 09/08 A3003
RMK AO2 T00890078 $





000
SAUS46 KSEW 020702
MTRSMP
METAR KSMP 020656Z AUTO VRB04KT 7SM FEW025 BKN038 09/08 A3004 RMK
AO2 SLP162 T00940078 $





000
SAUS46 KSEW 020626
MTRSMP
SPECI KSMP 020624Z AUTO VRB04KT 10SM BKN029 BKN034 09/08 A3005 RMK
AO2 T00940083 $





000
SAUS46 KSEW 020458
MTRSMP
METAR KSMP 020456Z AUTO 00000KT 9SM CLR 09/08 A3006 RMK AO2 SLP177
T00890078 $





000
SAUS46 KSEW 020403
MTRSMP
METAR KSMP 020356Z AUTO VRB03KT 10SM CLR 09/08 A3007 RMK AO2 SLP182
T00940078 $





000
SAUS46 KSEW 020403
MTRSMP
METAR KSMP 020356Z AUTO VRB03KT 10SM CLR 09/08 A3007 RMK AO2 SLP182
T00940078 $





000
SAUS46 KSEW 020257
MTRSMP
METAR KSMP 020256Z AUTO VRB03KT 10SM CLR 10/07 A3007 RMK AO2 SLP181
T01000072 58010 $





000
SAUS46 KSEW 020159
MTRSMP
METAR KSMP 020156Z AUTO 31005KT 10SM FEW042 12/07 A3009 RMK AO2
SLP186 T01170072 $





000
SAUS46 KSEW 302119
MTRSMP
SPECI KSMP 302112Z AUTO VRB05KT 10SM FEW007 SCT012 BKN038 12/09
A2995 RMK AO2 T01170094 $





000
SAUS46 KSEW 301738
MTRSMP
SPECI KSMP 301736Z AUTO VRB03KT 2 1/2SM -RA BR BKN003 BKN013 OVC029
09/08 A2997 RMK AO2 P0005 T00940083 $





000
SAUS46 KSEW 301602
MTRSMP
METAR KSMP 301556Z AUTO 00000KT 10SM BKN019 OVC110 09/08 A2996 RMK
AO2 SLP157 T00940078 $





    US Dept of Commerce
    National Oceanic and Atmospheric Administration
    National Weather Service
    1325 East West Highway
    Silver Spring, MD 20910
    Page Author: NWS Internet Services Team
Disclaimer
Information Quality
Credits
Glossary
Privacy Policy
Freedom of Information Act (FOIA)
About Us
Career Opportunities